Time;durP1;ratioP1;P1;durP2;ratioP2;P2;SDS_P1;SDS_P2;PMS_P1;PMS_P2;Temp;Humidity;BMP_temperature;BMP_pressure;BME280_temperature;BME280_humidity;BME280_pressure;Samples;Min_cycle;Max_cycle;Signal;HPM_P1;HPM_P2
2022/10/14 00:00:49;;;;;;;3.25;2.63;;;19.10;99.90;;;;;;4147588;28;20221;-70
2022/10/14 00:02:51;;;;;;;3.83;2.65;;;19.10;99.90;;;;;;4147533;28;20658;-70
2022/10/14 00:04:54;;;;;;;4.25;2.55;;;19.10;99.90;;;;;;4147841;28;20267;-70
2022/10/14 00:06:56;;;;;;;2.88;2.58;;;19.10;99.90;;;;;;4147553;28;20283;-70
2022/10/14 00:09:01;;;;;;;3.38;2.45;;;19.10;99.90;;;;;;4147652;28;20224;-71
2022/10/14 00:11:05;;;;;;;2.97;2.67;;;19.10;99.90;;;;;;4140523;28;20284;-71
2022/10/14 00:13:07;;;;;;;3.13;2.67;;;19.10;99.90;;;;;;4134387;28;20225;-71
2022/10/14 00:15:11;;;;;;;4.43;2.67;;;19.10;99.90;;;;;;4142780;28;20654;-71
2022/10/14 00:17:15;;;;;;;3.65;2.60;;;19.10;99.90;;;;;;4146605;28;20217;-71
2022/10/14 00:19:17;;;;;;;2.60;2.40;;;19.10;99.90;;;;;;4147073;28;20228;-71
2022/10/14 00:21:20;;;;;;;2.95;2.42;;;19.10;99.90;;;;;;4147307;28;20221;-71
2022/10/14 00:23:22;;;;;;;3.25;2.50;;;19.10;99.90;;;;;;4146727;28;20327;-71
2022/10/14 00:25:26;;;;;;;3.80;2.75;;;19.10;99.90;;;;;;4147019;28;20221;-71
2022/10/14 00:27:29;;;;;;;2.92;2.63;;;19.10;99.90;;;;;;4146249;28;20551;-71
2022/10/14 00:29:31;;;;;;;3.58;2.83;;;19.10;99.90;;;;;;4147003;28;20329;-71
2022/10/14 00:31:34;;;;;;;3.17;2.83;;;19.10;99.90;;;;;;4139315;28;20238;-71
2022/10/14 00:33:37;;;;;;;3.58;2.95;;;19.10;99.90;;;;;;4146783;28;20294;-71
2022/10/14 00:35:40;;;;;;;3.58;2.75;;;19.10;99.90;;;;;;4146936;28;20665;-71
2022/10/14 00:37:42;;;;;;;3.63;2.90;;;19.10;99.90;;;;;;4146563;28;20669;-71
2022/10/14 00:39:44;;;;;;;3.38;2.60;;;19.10;99.90;;;;;;4146590;28;20661;-71
2022/10/14 00:41:47;;;;;;;2.80;2.50;;;19.10;99.90;;;;;;4141424;28;20275;-71
2022/10/14 00:43:53;;;;;;;3.95;2.53;;;19.10;99.90;;;;;;4139069;28;20217;-71
2022/10/14 00:45:56;;;;;;;3.08;2.78;;;19.10;99.90;;;;;;4146689;28;20662;-71
2022/10/14 00:47:58;;;;;;;2.83;2.55;;;19.10;99.90;;;;;;4146774;28;20339;-71
2022/10/14 00:50:05;;;;;;;3.03;2.72;;;19.10;99.90;;;;;;4146823;28;20267;-71
2022/10/14 00:52:13;;;;;;;3.10;2.80;;;19.10;99.90;;;;;;4146802;28;20287;-71
2022/10/14 00:54:18;;;;;;;2.92;2.60;;;19.10;99.90;;;;;;4146502;28;20275;-71
2022/10/14 00:56:25;;;;;;;2.75;2.53;;;19.10;99.90;;;;;;4146600;28;20262;-70
2022/10/14 00:58:27;;;;;;;2.97;2.60;;;19.10;99.90;;;;;;4145038;28;20279;-71
2022/10/14 01:00:29;;;;;;;2.58;2.38;;;19.10;99.90;;;;;;4142648;28;20221;-71
2022/10/14 01:02:31;;;;;;;3.13;2.70;;;19.10;99.90;;;;;;4146119;28;20287;-71
2022/10/14 01:04:35;;;;;;;3.78;2.70;;;19.10;99.90;;;;;;4146173;28;20286;-71
2022/10/14 01:06:50;;;;;;;3.20;2.63;;;19.10;99.90;;;;;;4146432;28;20271;-71
2022/10/14 01:08:58;;;;;;;3.00;2.63;;;19.10;99.90;;;;;;4146112;28;20224;-71
2022/10/14 01:11:07;;;;;;;3.63;2.65;;;19.00;99.90;;;;;;4146395;28;20290;-70
2022/10/14 01:13:20;;;;;;;2.78;2.47;;;19.00;99.90;;;;;;4146406;28;20224;-70
2022/10/14 01:15:32;;;;;;;3.55;2.47;;;19.10;99.90;;;;;;4137115;28;20267;-70
2022/10/14 01:17:49;;;;;;;3.85;3.00;;;19.00;99.90;;;;;;4146130;28;20221;-70
2022/10/14 01:20:27;;;;;;;3.53;2.70;;;19.10;99.90;;;;;;4146195;28;20279;-70
2022/10/14 01:22:36;;;;;;;3.38;2.70;;;19.00;99.90;;;;;;4112618;28;20584;-70
2022/10/14 01:24:43;;;;;;;2.88;2.30;;;19.00;99.90;;;;;;4146385;28;20228;-70
2022/10/14 01:27:06;;;;;;;2.45;2.25;;;19.00;99.90;;;;;;4146295;28;20275;-71
2022/10/14 01:29:39;;;;;;;2.85;2.53;;;19.00;99.90;;;;;;4146404;28;20221;-70
2022/10/14 01:31:47;;;;;;;2.88;2.50;;;19.00;99.90;;;;;;4138825;28;20241;-70
2022/10/14 01:33:55;;;;;;;3.95;2.60;;;19.10;99.90;;;;;;4146230;28;20279;-70
2022/10/14 01:36:04;;;;;;;3.15;2.20;;;19.00;99.90;;;;;;4146180;28;20660;-71
2022/10/14 01:38:11;;;;;;;3.70;2.42;;;19.00;99.90;;;;;;4146199;28;20225;-70
2022/10/14 01:40:21;;;;;;;4.03;2.60;;;19.00;99.90;;;;;;4140323;28;20630;-70
2022/10/14 01:42:27;;;;;;;2.95;2.38;;;19.00;99.90;;;;;;4144434;28;20619;-71
2022/10/14 01:44:31;;;;;;;3.10;2.60;;;19.00;99.90;;;;;;4146179;28;20677;-70
2022/10/14 01:46:37;;;;;;;3.80;2.50;;;19.00;99.90;;;;;;4140241;28;20728;-70
2022/10/14 01:48:44;;;;;;;2.50;2.30;;;19.00;99.90;;;;;;4142480;28;20283;-70
2022/10/14 01:50:49;;;;;;;2.72;2.20;;;19.00;99.90;;;;;;4133235;28;20274;-70
2022/10/14 01:52:57;;;;;;;2.95;2.58;;;19.00;99.90;;;;;;4146070;28;20241;-70
2022/10/14 01:55:03;;;;;;;3.25;2.28;;;19.00;99.90;;;;;;4145911;28;20570;-70
2022/10/14 01:57:15;;;;;;;3.88;2.53;;;19.00;99.90;;;;;;4145881;28;20297;-70
2022/10/14 01:59:20;;;;;;;2.78;2.50;;;19.00;99.90;;;;;;4145642;28;20237;-70
2022/10/14 02:01:24;;;;;;;2.83;2.63;;;19.00;99.90;;;;;;4146070;28;20217;-70
2022/10/14 02:03:41;;;;;;;3.17;2.65;;;19.00;99.90;;;;;;4141813;28;20712;-70
2022/10/14 02:05:48;;;;;;;3.20;2.22;;;19.00;99.90;;;;;;4127986;28;20252;-70
2022/10/14 02:07:57;;;;;;;3.08;2.35;;;19.00;99.90;;;;;;4145868;28;20290;-71
2022/10/14 02:10:10;;;;;;;2.70;2.22;;;19.00;99.90;;;;;;4145765;28;20225;-71
2022/10/14 02:12:25;;;;;;;2.30;2.10;;;19.00;99.90;;;;;;4145909;28;20736;-71
2022/10/14 02:14:37;;;;;;;3.30;2.25;;;19.00;99.90;;;;;;4145815;28;20225;-71
2022/10/14 02:16:48;;;;;;;2.58;2.35;;;19.00;99.90;;;;;;4145566;28;20221;-71
2022/10/14 02:18:58;;;;;;;2.50;2.30;;;19.00;99.90;;;;;;4146212;28;20275;-71
2022/10/14 02:21:07;;;;;;;2.60;2.40;;;19.00;99.90;;;;;;4145308;28;20217;-71
2022/10/14 02:23:15;;;;;;;3.53;2.75;;;18.90;99.90;;;;;;4146257;28;21217;-71
2022/10/14 02:25:21;;;;;;;2.38;2.17;;;19.00;99.90;;;;;;4145702;28;20302;-71
2022/10/14 02:27:27;;;;;;;2.90;2.42;;;19.00;99.90;;;;;;4145556;28;20305;-71
2022/10/14 02:29:31;;;;;;;3.00;2.40;;;19.00;99.90;;;;;;4145664;28;20272;-71
2022/10/14 02:31:37;;;;;;;2.42;2.22;;;19.00;99.90;;;;;;4142219;28;20272;-71
2022/10/14 02:33:42;;;;;;;2.63;2.42;;;19.00;99.90;;;;;;4146258;28;20295;-71
2022/10/14 02:35:48;;;;;;;2.80;2.25;;;19.00;99.90;;;;;;4148639;28;20312;-71
2022/10/14 02:37:53;;;;;;;3.90;2.70;;;19.00;99.90;;;;;;4149089;28;20229;-71
2022/10/14 02:40:00;;;;;;;2.95;2.65;;;19.00;99.90;;;;;;4145051;28;20685;-71
2022/10/14 02:42:02;;;;;;;2.75;2.45;;;19.00;99.90;;;;;;4148734;28;20238;-71
2022/10/14 02:44:05;;;;;;;2.65;2.35;;;19.00;99.90;;;;;;4148470;28;20283;-71
2022/10/14 02:46:08;;;;;;;2.88;2.08;;;19.00;99.90;;;;;;4148257;28;20275;-71
2022/10/14 02:48:12;;;;;;;3.13;2.30;;;19.00;99.90;;;;;;4148512;28;20275;-71
2022/10/14 02:50:14;;;;;;;4.35;2.25;;;18.90;99.90;;;;;;4148207;28;20296;-71
2022/10/14 02:52:18;;;;;;;2.65;2.45;;;18.90;99.90;;;;;;4148061;28;20295;-71
2022/10/14 02:54:21;;;;;;;2.75;2.45;;;19.00;99.90;;;;;;4148251;28;20287;-71
2022/10/14 02:56:23;;;;;;;3.08;2.67;;;18.90;99.90;;;;;;4142554;28;20264;-71
2022/10/14 02:58:25;;;;;;;3.00;2.70;;;19.00;99.90;;;;;;4148327;28;20719;-71
2022/10/14 03:00:27;;;;;;;2.78;2.40;;;18.90;99.90;;;;;;4116164;28;20277;-71
2022/10/14 03:02:30;;;;;;;2.70;2.38;;;19.00;99.90;;;;;;4116213;28;20267;-71
2022/10/14 03:04:32;;;;;;;3.00;2.47;;;18.90;99.90;;;;;;4116270;28;20637;-71
2022/10/14 03:06:34;;;;;;;2.63;2.38;;;19.00;99.90;;;;;;4116339;28;20356;-71
2022/10/14 03:08:38;;;;;;;2.42;2.22;;;18.90;99.90;;;;;;4116251;28;20253;-71
2022/10/14 03:10:41;;;;;;;2.72;2.42;;;18.90;99.90;;;;;;4116014;28;20234;-69
2022/10/14 03:12:43;;;;;;;3.38;2.47;;;19.00;99.90;;;;;;4102706;28;20235;-70
2022/10/14 03:14:45;;;;;;;2.53;2.33;;;18.90;99.90;;;;;;4115701;28;20265;-70
2022/10/14 03:16:49;;;;;;;2.60;2.40;;;18.90;99.90;;;;;;4115710;28;20226;-70
2022/10/14 03:18:51;;;;;;;2.75;2.35;;;18.90;99.90;;;;;;4115793;28;20226;-70
2022/10/14 03:20:54;;;;;;;2.25;2.05;;;18.90;99.90;;;;;;4116147;28;20222;-70
2022/10/14 03:22:56;;;;;;;2.55;2.33;;;18.90;99.90;;;;;;4116012;28;20222;-70
2022/10/14 03:25:00;;;;;;;2.45;2.25;;;18.90;99.90;;;;;;4116061;28;20623;-70
2022/10/14 03:27:02;;;;;;;3.25;2.60;;;18.90;99.90;;;;;;4113792;28;20230;-70
2022/10/14 03:29:04;;;;;;;2.88;2.63;;;18.90;99.90;;;;;;4104686;28;20262;-70
2022/10/14 03:31:07;;;;;;;2.50;2.30;;;18.90;99.90;;;;;;4111670;28;20223;-70
2022/10/14 03:33:09;;;;;;;3.00;2.20;;;18.90;99.90;;;;;;4115858;28;20301;-70
2022/10/14 03:35:11;;;;;;;2.47;2.22;;;18.90;99.90;;;;;;4116172;28;20476;-70
2022/10/14 03:37:14;;;;;;;2.85;2.50;;;18.90;99.90;;;;;;4115745;28;20281;-69
2022/10/14 03:39:16;;;;;;;2.55;2.00;;;18.90;99.90;;;;;;4115675;28;20687;-70
2022/10/14 03:41:20;;;;;;;2.80;2.28;;;18.90;99.90;;;;;;4115623;28;20261;-70
2022/10/14 03:43:22;;;;;;;2.40;2.20;;;18.90;99.90;;;;;;4115212;28;20683;-70
2022/10/14 03:45:24;;;;;;;2.50;2.30;;;18.90;99.90;;;;;;4115061;28;20223;-70
2022/10/14 03:47:27;;;;;;;3.10;2.45;;;18.90;99.90;;;;;;4115601;28;20230;-70
2022/10/14 03:49:29;;;;;;;2.92;2.50;;;18.90;99.90;;;;;;4115650;28;20277;-70
2022/10/14 03:51:31;;;;;;;2.75;2.17;;;18.90;99.90;;;;;;4112228;28;20281;-76
2022/10/14 03:53:34;;;;;;;3.38;2.40;;;18.90;99.90;;;;;;4111831;28;20301;-75
2022/10/14 03:55:36;;;;;;;2.97;2.30;;;18.90;99.90;;;;;;4115439;28;20281;-75
2022/10/14 03:57:40;;;;;;;2.45;2.10;;;18.90;99.90;;;;;;4115852;28;20274;-75
2022/10/14 03:59:42;;;;;;;2.40;2.20;;;18.90;99.90;;;;;;4135483;28;20241;-75
2022/10/14 04:01:44;;;;;;;2.38;2.17;;;18.90;99.90;;;;;;4146235;28;20665;-74
2022/10/14 04:03:47;;;;;;;2.72;2.20;;;18.90;99.90;;;;;;4147117;28;20658;-75
2022/10/14 04:05:49;;;;;;;2.88;2.17;;;18.90;99.90;;;;;;4146819;28;20221;-75
2022/10/14 04:07:51;;;;;;;2.90;2.60;;;18.90;99.90;;;;;;4147005;28;20637;-75
2022/10/14 04:09:54;;;;;;;2.40;2.20;;;18.90;99.90;;;;;;4147820;28;20243;-75
2022/10/14 04:11:56;;;;;;;2.38;2.17;;;18.90;99.90;;;;;;4147594;28;20279;-75
2022/10/14 04:14:01;;;;;;;2.63;2.30;;;18.90;99.90;;;;;;4147557;28;20241;-75
2022/10/14 04:16:05;;;;;;;3.13;2.28;;;18.90;99.90;;;;;;4147426;28;20298;-75
2022/10/14 04:18:07;;;;;;;2.40;2.20;;;18.90;99.90;;;;;;4136906;28;20240;-75
2022/10/14 04:20:10;;;;;;;3.03;2.40;;;18.90;99.90;;;;;;4146874;28;20250;-75
2022/10/14 04:22:12;;;;;;;2.90;2.40;;;18.90;99.90;;;;;;4147076;28;20233;-74
2022/10/14 04:24:15;;;;;;;2.35;2.10;;;18.90;99.90;;;;;;4147191;28;20306;-74
2022/10/14 04:26:18;;;;;;;2.40;2.20;;;18.90;99.90;;;;;;4147324;28;20574;-75
2022/10/14 04:28:20;;;;;;;2.63;2.42;;;18.90;99.90;;;;;;4146797;28;20225;-75
2022/10/14 04:30:26;;;;;;;2.65;2.42;;;18.90;99.90;;;;;;4146849;28;20290;-75
2022/10/14 04:32:28;;;;;;;2.08;1.88;;;18.90;99.90;;;;;;4146108;28;20225;-75
2022/10/14 04:34:30;;;;;;;2.38;2.17;;;18.90;99.90;;;;;;4145784;28;20681;-75
2022/10/14 04:36:33;;;;;;;2.72;2.47;;;18.90;99.90;;;;;;4146817;28;20220;-76
2022/10/14 04:38:35;;;;;;;2.20;1.98;;;18.90;99.90;;;;;;4147035;28;20225;-75
2022/10/14 04:40:37;;;;;;;2.50;2.20;;;18.90;99.90;;;;;;4146557;28;20294;-75
2022/10/14 04:42:40;;;;;;;2.45;2.20;;;18.90;99.90;;;;;;4146843;28;20216;-75
2022/10/14 04:44:42;;;;;;;3.00;2.10;;;18.90;99.90;;;;;;4146527;28;20279;-75
2022/10/14 04:46:46;;;;;;;2.83;2.53;;;18.90;99.90;;;;;;4146522;28;20583;-75
2022/10/14 04:48:49;;;;;;;2.60;2.22;;;18.80;99.90;;;;;;4134109;28;20217;-75
2022/10/14 04:50:51;;;;;;;2.63;2.35;;;18.90;99.90;;;;;;4140965;28;20216;-76
2022/10/14 04:52:54;;;;;;;2.08;1.88;;;18.80;99.90;;;;;;4146389;28;20248;-75
2022/10/14 04:54:56;;;;;;;2.22;2.00;;;18.90;99.90;;;;;;4146428;28;20509;-76
2022/10/14 04:56:58;;;;;;;2.80;2.45;;;18.80;99.90;;;;;;4145676;28;20275;-76
2022/10/14 04:59:01;;;;;;;2.80;2.22;;;18.80;99.90;;;;;;4146375;28;20286;-75
2022/10/14 05:01:03;;;;;;;2.67;2.30;;;18.90;99.90;;;;;;4146287;28;20228;-75
2022/10/14 05:03:07;;;;;;;2.20;2.00;;;18.90;99.90;;;;;;4146628;28;20217;-76
2022/10/14 05:05:09;;;;;;;2.78;2.08;;;18.90;99.90;;;;;;4143628;28;20279;-76
2022/10/14 05:07:11;;;;;;;2.90;2.60;;;18.90;99.90;;;;;;4138210;28;20224;-75
2022/10/14 05:09:14;;;;;;;2.35;1.95;;;18.90;99.90;;;;;;4146230;28;20217;-75
2022/10/14 05:11:16;;;;;;;2.58;2.13;;;18.90;99.90;;;;;;4146103;28;20720;-75
2022/10/14 05:13:18;;;;;;;2.42;2.00;;;18.90;99.90;;;;;;4146537;28;20244;-75
2022/10/14 05:15:21;;;;;;;2.45;2.20;;;18.80;99.90;;;;;;4144569;28;20228;-76
2022/10/14 05:17:23;;;;;;;2.38;2.17;;;18.90;99.90;;;;;;4140566;28;20674;-75
2022/10/14 05:19:27;;;;;;;2.33;2.13;;;18.90;99.90;;;;;;4145804;28;20271;-75
2022/10/14 05:21:29;;;;;;;3.08;2.40;;;18.80;99.90;;;;;;4146301;28;20244;-75
2022/10/14 05:23:32;;;;;;;2.38;1.92;;;18.90;99.90;;;;;;4145138;28;20209;-76
2022/10/14 05:25:34;;;;;;;2.63;2.25;;;18.90;99.90;;;;;;4146447;28;20283;-76
2022/10/14 05:27:36;;;;;;;2.05;1.80;;;18.90;99.90;;;;;;4146181;28;20271;-75
2022/10/14 05:29:38;;;;;;;2.42;1.90;;;18.90;99.90;;;;;;4146264;28;20225;-75
2022/10/14 05:31:41;;;;;;;2.30;2.10;;;18.90;99.90;;;;;;4143820;28;20217;-76
2022/10/14 05:33:43;;;;;;;3.00;2.13;;;18.80;99.90;;;;;;4145878;28;20241;-76
2022/10/14 05:35:47;;;;;;;3.20;2.28;;;18.90;99.90;;;;;;4146178;28;20270;-76
2022/10/14 05:37:54;;;;;;;2.17;1.90;;;18.90;99.90;;;;;;4146321;28;20220;-76
2022/10/14 05:39:57;;;;;;;2.05;1.80;;;18.90;99.90;;;;;;4142382;28;20262;-76
2022/10/14 05:41:59;;;;;;;2.30;2.03;;;18.80;99.90;;;;;;4142039;28;20270;-76
2022/10/14 05:44:01;;;;;;;2.03;1.83;;;18.80;99.90;;;;;;4145877;28;20278;-76
2022/10/14 05:46:04;;;;;;;3.13;2.13;;;18.90;99.90;;;;;;4146032;28;20808;-76
2022/10/14 05:48:06;;;;;;;2.10;1.90;;;18.80;99.90;;;;;;4146288;28;20622;-76
2022/10/14 05:50:08;;;;;;;2.42;2.10;;;18.80;99.90;;;;;;4146402;28;20225;-76
2022/10/14 05:52:12;;;;;;;3.30;2.53;;;18.90;99.90;;;;;;4146603;28;20669;-75
2022/10/14 05:54:15;;;;;;;2.22;2.03;;;18.80;99.90;;;;;;4146077;28;20241;-76
2022/10/14 05:56:17;;;;;;;2.10;1.90;;;18.90;99.90;;;;;;4146193;28;20673;-76
2022/10/14 05:58:19;;;;;;;2.15;1.95;;;18.90;99.90;;;;;;4137437;28;20221;-74
2022/10/14 06:00:22;;;;;;;2.50;2.05;;;18.80;99.90;;;;;;4145645;28;20308;-75
2022/10/14 06:02:24;;;;;;;2.90;2.05;;;18.90;99.90;;;;;;4145555;28;20275;-75
2022/10/14 06:04:27;;;;;;;2.33;2.13;;;18.90;99.90;;;;;;4145627;28;20232;-75
2022/10/14 06:06:29;;;;;;;2.88;2.22;;;18.90;99.90;;;;;;4145792;28;20225;-75
2022/10/14 06:08:33;;;;;;;3.45;2.20;;;18.80;99.90;;;;;;4147823;28;20267;-75
2022/10/14 06:10:35;;;;;;;2.17;1.98;;;18.90;99.90;;;;;;4149228;28;20209;-75
2022/10/14 06:12:38;;;;;;;1.98;1.80;;;18.90;99.90;;;;;;4148821;28;20293;-75
2022/10/14 06:14:40;;;;;;;2.40;2.00;;;18.90;99.90;;;;;;4147484;28;20241;-75
2022/10/14 06:16:42;;;;;;;2.50;1.90;;;18.80;99.90;;;;;;4148770;28;20225;-75
2022/10/14 06:18:45;;;;;;;2.05;1.75;;;18.90;99.90;;;;;;4149012;28;20229;-75
2022/10/14 06:20:52;;;;;;;2.38;2.10;;;18.90;99.90;;;;;;4148847;28;20280;-76
2022/10/14 06:22:55;;;;;;;3.30;1.83;;;18.80;99.90;;;;;;4148177;28;20221;-75
2022/10/14 06:24:58;;;;;;;2.60;1.80;;;18.80;99.90;;;;;;4147809;28;20666;-75
2022/10/14 06:27:00;;;;;;;2.20;1.67;;;18.90;99.90;;;;;;4147515;28;20275;-75
2022/10/14 06:29:03;;;;;;;2.58;2.05;;;18.90;99.90;;;;;;4147674;28;20265;-75
2022/10/14 06:31:06;;;;;;;2.20;2.00;;;18.90;99.90;;;;;;4146914;28;20209;-74
2022/10/14 06:33:08;;;;;;;2.20;1.95;;;18.90;99.90;;;;;;4147923;28;20275;-75
2022/10/14 06:35:10;;;;;;;2.40;2.17;;;18.80;99.90;;;;;;4147463;28;20245;-75
2022/10/14 06:37:13;;;;;;;2.53;1.88;;;18.80;99.90;;;;;;4148228;28;20216;-76
2022/10/14 06:39:15;;;;;;;2.53;2.13;;;18.80;99.90;;;;;;4148384;28;20275;-76
2022/10/14 06:41:19;;;;;;;2.20;2.00;;;18.90;99.90;;;;;;4148330;28;20255;-75
2022/10/14 06:43:22;;;;;;;1.90;1.80;;;18.90;99.90;;;;;;4148642;28;20267;-76
2022/10/14 06:45:24;;;;;;;2.10;1.90;;;18.80;99.90;;;;;;4148401;28;20217;-76
2022/10/14 06:47:27;;;;;;;2.28;2.08;;;18.80;99.90;;;;;;4149078;28;20217;-75
2022/10/14 06:49:29;;;;;;;2.20;2.00;;;18.90;99.90;;;;;;4144494;28;20213;-75
2022/10/14 06:51:31;;;;;;;2.20;2.00;;;18.80;99.90;;;;;;4148330;28;20248;-75
2022/10/14 06:53:33;;;;;;;2.03;1.92;;;18.90;99.90;;;;;;4145769;28;20221;-76
2022/10/14 06:55:36;;;;;;;2.67;1.98;;;18.90;99.90;;;;;;4148399;28;20291;-75
2022/10/14 06:57:40;;;;;;;3.58;1.90;;;18.90;99.90;;;;;;4143061;28;20832;-77
2022/10/14 06:59:43;;;;;;;3.58;2.03;;;18.90;99.90;;;;;;4142106;28;20607;-75
2022/10/14 07:01:45;;;;;;;2.25;2.05;;;18.80;99.90;;;;;;4146626;28;20852;-75
2022/10/14 07:03:47;;;;;;;2.28;2.08;;;18.80;99.90;;;;;;4135117;28;20260;-75
2022/10/14 07:05:50;;;;;;;2.72;2.20;;;18.90;99.90;;;;;;4136320;28;20212;-75
2022/10/14 07:07:52;;;;;;;2.80;2.05;;;18.90;99.90;;;;;;4142983;28;20279;-76
2022/10/14 07:09:55;;;;;;;2.75;2.05;;;18.90;99.90;;;;;;4144301;28;20240;-76
2022/10/14 07:11:57;;;;;;;4.32;1.85;;;18.90;99.90;;;;;;4135989;28;20228;-75
2022/10/14 07:14:01;;;;;;;2.92;2.17;;;18.90;99.90;;;;;;4150178;28;20287;-75
2022/10/14 07:16:04;;;;;;;2.40;2.03;;;18.90;99.90;;;;;;4140130;28;20232;-75
2022/10/14 07:18:07;;;;;;;2.17;1.98;;;18.90;99.90;;;;;;4134643;28;20275;-76
2022/10/14 07:20:11;;;;;;;2.60;2.20;;;18.90;99.90;;;;;;4140486;28;20218;-76
2022/10/14 07:22:13;;;;;;;3.03;1.98;;;19.00;99.90;;;;;;4141570;28;20733;-76
2022/10/14 07:24:15;;;;;;;3.38;1.65;;;19.00;99.90;;;;;;4142066;28;20225;-76
2022/10/14 07:26:17;;;;;;;1.88;1.70;;;19.10;99.90;;;;;;4142739;28;20225;-75
2022/10/14 07:28:20;;;;;;;2.13;1.92;;;19.10;99.90;;;;;;4139406;28;20729;-77
2022/10/14 07:30:24;;;;;;;2.45;2.13;;;19.10;99.90;;;;;;4144364;28;20209;-75
2022/10/14 07:32:26;;;;;;;3.00;2.00;;;19.10;99.90;;;;;;4140788;28;20221;-76
2022/10/14 07:34:29;;;;;;;3.85;1.92;;;19.00;99.90;;;;;;4143263;28;20287;-76
2022/10/14 07:36:31;;;;;;;2.35;2.03;;;19.10;99.90;;;;;;4143093;28;20287;-75
2022/10/14 07:38:33;;;;;;;3.15;1.80;;;19.10;99.90;;;;;;4145847;28;20274;-76
2022/10/14 07:40:36;;;;;;;2.50;2.03;;;19.10;99.90;;;;;;4136476;28;20275;-75
2022/10/14 07:42:38;;;;;;;2.67;2.10;;;19.20;99.90;;;;;;4135743;28;20624;-77
2022/10/14 07:44:44;;;;;;;2.38;2.17;;;19.20;99.90;;;;;;4133401;28;20268;-76
2022/10/14 07:46:48;;;;;;;4.13;1.85;;;19.20;99.90;;;;;;4138194;28;20275;-75
2022/10/14 07:48:50;;;;;;;2.08;1.73;;;19.20;99.90;;;;;;4140657;28;20221;-75
2022/10/14 07:50:53;;;;;;;2.65;2.08;;;19.20;99.90;;;;;;4140865;28;20272;-76
2022/10/14 07:52:55;;;;;;;2.00;1.80;;;19.20;99.90;;;;;;4141478;28;20321;-75
2022/10/14 07:54:57;;;;;;;2.08;1.83;;;19.30;99.90;;;;;;4140685;28;20692;-75
2022/10/14 07:57:00;;;;;;;3.38;2.20;;;19.20;99.90;;;;;;4142451;28;20244;-75
2022/10/14 07:59:02;;;;;;;2.58;2.03;;;19.20;99.90;;;;;;4140011;28;20291;-76
2022/10/14 08:01:05;;;;;;;3.05;2.10;;;19.20;99.90;;;;;;4143261;28;20213;-76
2022/10/14 08:03:08;;;;;;;2.55;2.28;;;19.20;99.90;;;;;;4131734;28;20303;-75
2022/10/14 08:05:11;;;;;;;2.55;1.85;;;19.30;99.90;;;;;;4131068;28;21934;-75
2022/10/14 08:07:14;;;;;;;2.50;1.95;;;19.40;99.90;;;;;;4136298;28;20241;-75
2022/10/14 08:09:17;;;;;;;4.60;2.00;;;19.40;99.90;;;;;;4141953;28;20808;-74
2022/10/14 08:11:22;;;;;;;3.25;1.88;;;19.50;99.90;;;;;;4140693;28;20251;-76
2022/10/14 08:13:25;;;;;;;1.83;1.55;;;19.60;99.90;;;;;;4142035;28;20732;-76
2022/10/14 08:15:28;;;;;;;3.92;2.05;;;19.70;99.90;;;;;;4130907;28;20826;-75
2022/10/14 08:17:31;;;;;;;2.20;1.80;;;19.80;99.90;;;;;;4142064;28;20276;-75
2022/10/14 08:19:34;;;;;;;4.55;1.60;;;19.90;99.90;;;;;;4135033;28;20213;-75
2022/10/14 08:21:37;;;;;;;2.90;2.00;;;20.00;99.90;;;;;;4139776;28;20214;-75
2022/10/14 08:23:39;;;;;;;3.03;2.00;;;20.10;99.90;;;;;;4134482;28;20672;-76
2022/10/14 08:25:42;;;;;;;2.17;1.98;;;20.10;99.90;;;;;;4139481;28;20213;-75
2022/10/14 08:27:44;;;;;;;2.22;2.03;;;20.10;99.90;;;;;;4144106;28;20213;-76
2022/10/14 08:29:46;;;;;;;2.90;2.00;;;20.10;99.90;;;;;;4143362;28;20255;-77
2022/10/14 08:31:49;;;;;;;3.70;1.70;;;20.10;99.90;;;;;;4141381;28;20212;-77
2022/10/14 08:33:51;;;;;;;2.42;1.73;;;20.20;99.90;;;;;;4143405;28;20232;-77
2022/10/14 08:35:55;;;;;;;2.25;1.50;;;20.30;99.90;;;;;;4147380;28;20287;-75
2022/10/14 08:37:58;;;;;;;3.63;1.95;;;20.30;99.90;;;;;;4141088;28;20213;-74
2022/10/14 08:40:00;;;;;;;2.85;1.90;;;20.30;99.90;;;;;;4143728;28;20286;-74
2022/10/14 08:42:17;;;;;;;3.35;1.73;;;20.40;99.90;;;;;;4134533;28;20229;-75
2022/10/14 08:44:22;;;;;;;3.20;2.30;;;20.40;99.90;;;;;;4136543;28;20593;-74
2022/10/14 08:46:30;;;;;;;2.97;1.85;;;20.50;99.90;;;;;;4134207;28;20255;-75
2022/10/14 08:48:34;;;;;;;1.98;1.75;;;20.50;99.90;;;;;;4138953;28;20286;-75
2022/10/14 08:50:41;;;;;;;2.97;2.05;;;20.50;99.90;;;;;;4139531;28;20272;-75
2022/10/14 08:52:50;;;;;;;2.08;1.77;;;20.50;99.90;;;;;;4142593;28;20212;-76
2022/10/14 08:54:58;;;;;;;3.35;2.13;;;20.50;99.90;;;;;;4136644;28;20270;-77
2022/10/14 08:57:02;;;;;;;2.80;1.70;;;20.50;99.90;;;;;;4142211;28;20244;-76
2022/10/14 08:59:12;;;;;;;2.10;1.80;;;20.60;99.90;;;;;;4133461;28;20816;-75
2022/10/14 09:01:22;;;;;;;2.10;1.75;;;20.50;99.90;;;;;;4138336;28;20700;-77
2022/10/14 09:03:31;;;;;;;3.75;1.95;;;20.50;99.90;;;;;;4140366;28;20221;-77
2022/10/14 09:05:34;;;;;;;3.25;1.80;;;20.60;99.90;;;;;;4142058;28;20205;-77
2022/10/14 09:07:37;;;;;;;3.75;1.88;;;20.60;99.90;;;;;;4142797;28;20221;-78
2022/10/14 09:09:44;;;;;;;2.75;2.05;;;20.60;99.90;;;;;;4139515;28;20276;-74
2022/10/14 09:11:51;;;;;;;2.25;1.98;;;20.60;99.90;;;;;;4143517;28;20225;-75
2022/10/14 09:13:57;;;;;;;3.63;2.00;;;20.60;99.90;;;;;;4142699;28;20271;-76
2022/10/14 09:16:06;;;;;;;3.00;1.70;;;20.70;99.90;;;;;;4139489;28;20338;-75
2022/10/14 09:18:27;;;;;;;3.05;2.20;;;20.60;99.90;;;;;;4143136;28;20274;-76
2022/10/14 09:20:30;;;;;;;2.50;1.90;;;20.60;99.90;;;;;;4141271;28;20607;-76
2022/10/14 09:22:32;;;;;;;5.00;2.20;;;20.70;99.90;;;;;;4141007;28;20221;-76
2022/10/14 09:24:36;;;;;;;1.80;1.70;;;20.70;99.90;;;;;;4141785;28;20666;-76
2022/10/14 09:26:41;;;;;;;3.22;1.90;;;20.80;99.90;;;;;;4145539;28;20271;-75
2022/10/14 09:28:48;;;;;;;5.13;2.10;;;20.70;99.90;;;;;;4139976;28;20213;-76
2022/10/14 09:30:51;;;;;;;2.47;1.83;;;20.70;99.90;;;;;;4137328;28;20217;-76
2022/10/14 09:32:54;;;;;;;2.88;2.17;;;20.70;99.90;;;;;;4140400;28;20217;-76
2022/10/14 09:34:58;;;;;;;3.08;1.90;;;20.70;99.90;;;;;;4133675;28;20669;-76
2022/10/14 09:37:17;;;;;;;2.00;1.75;;;20.80;99.90;;;;;;4140061;28;20280;-76
2022/10/14 09:39:20;;;;;;;2.95;2.00;;;20.80;99.90;;;;;;4143335;28;20279;-76
2022/10/14 09:41:26;;;;;;;2.58;2.00;;;20.90;99.90;;;;;;4140527;28;20586;-76
2022/10/14 09:43:29;;;;;;;3.22;2.05;;;20.80;99.90;;;;;;4144868;28;20224;-76
2022/10/14 09:45:48;;;;;;;2.25;2.05;;;20.90;99.90;;;;;;4144087;28;20221;-75
2022/10/14 09:47:55;;;;;;;2.17;1.80;;;20.80;99.90;;;;;;4145086;28;20221;-76
2022/10/14 09:49:59;;;;;;;4.43;2.08;;;20.80;99.90;;;;;;4145137;28;20217;-76
2022/10/14 09:52:02;;;;;;;2.72;1.90;;;20.90;99.90;;;;;;4145351;28;20649;-75
2022/10/14 09:54:05;;;;;;;3.05;2.10;;;20.90;99.90;;;;;;4145704;28;20649;-76
2022/10/14 09:56:09;;;;;;;2.22;2.00;;;20.90;99.90;;;;;;4145487;28;20275;-77
2022/10/14 09:58:16;;;;;;;2.70;1.90;;;21.00;99.90;;;;;;4147588;28;20645;-77
2022/10/14 10:00:28;;;;;;;2.88;1.67;;;20.80;99.90;;;;;;4140096;28;20245;-76
2022/10/14 10:02:40;;;;;;;2.65;1.90;;;20.80;99.90;;;;;;4138360;28;20218;-76
2022/10/14 10:04:46;;;;;;;2.10;1.90;;;20.80;99.90;;;;;;4145208;28;20270;-76
2022/10/14 10:06:52;;;;;;;4.35;2.10;;;20.90;99.90;;;;;;4143364;28;20225;-76
2022/10/14 10:08:58;;;;;;;3.25;1.73;;;20.90;99.90;;;;;;4144953;28;20220;-76
2022/10/14 10:11:03;;;;;;;3.03;1.80;;;21.10;99.90;;;;;;4143740;28;20737;-76
2022/10/14 10:13:21;;;;;;;3.92;2.10;;;21.10;99.90;;;;;;4140974;28;20282;-77
2022/10/14 10:15:25;;;;;;;2.53;1.88;;;21.10;99.90;;;;;;4135640;28;20299;-75
2022/10/14 10:17:30;;;;;;;3.03;2.05;;;21.10;99.90;;;;;;4144091;28;20241;-74
2022/10/14 10:19:34;;;;;;;3.13;2.03;;;21.00;99.90;;;;;;4143825;28;20218;-74
2022/10/14 10:21:36;;;;;;;2.95;2.00;;;20.90;99.90;;;;;;4137260;28;20540;-76
2022/10/14 10:23:51;;;;;;;2.53;1.90;;;21.00;99.90;;;;;;4138561;28;20271;-76
2022/10/14 10:25:53;;;;;;;2.78;1.98;;;21.00;99.90;;;;;;4142126;28;20217;-75
2022/10/14 10:28:01;;;;;;;2.10;1.90;;;21.00;99.90;;;;;;4148800;28;20240;-76
2022/10/14 10:30:20;;;;;;;1.70;1.60;;;21.00;99.90;;;;;;4144345;28;20986;-76
2022/10/14 10:32:33;;;;;;;3.17;1.98;;;21.00;99.90;;;;;;4145126;28;20324;-76
2022/10/14 10:35:02;;;;;;;2.95;2.00;;;21.00;99.90;;;;;;4146180;28;20662;-77
2022/10/14 10:37:12;;;;;;;4.43;1.77;;;21.00;99.90;;;;;;4139447;28;20241;-75
2022/10/14 10:39:27;;;;;;;2.47;1.60;;;21.00;99.90;;;;;;4140578;28;20220;-76
2022/10/14 10:41:57;;;;;;;4.53;1.73;;;20.90;99.90;;;;;;4141755;28;20263;-76
2022/10/14 10:44:19;;;;;;;2.08;1.83;;;20.90;99.90;;;;;;4145725;28;20225;-77
2022/10/14 10:46:50;;;;;;;2.30;1.80;;;21.10;99.90;;;;;;4137058;28;20621;-77
2022/10/14 10:49:01;;;;;;;3.15;1.95;;;21.10;99.90;;;;;;4139232;28;20220;-77
2022/10/14 10:51:10;;;;;;;3.25;1.63;;;21.10;99.90;;;;;;4136330;28;20723;-78